Terminal Aerodrome Forecast
Issued by NWS

Home | Current Version | Previous Version | Graphics & Text | Print | Product List | Glossary On
Versions: 1 2 3 4 5 6 7 8 9 10 11 12 13 14 15 16 17 18 19 20 21 22 23 24 25 26 27 28 29
000
FTUS43 KLOT 030932 AAB
TAFORD
TAF AMD
KORD 030932Z 0310/0412 23005KT 1/4SM FG OVC002
     FM031100 22007KT 1/2SM FG OVC002
     FM031200 22012G19KT P6SM BKN010
     FM031400 23015G25KT P6SM OVC015
     FM031900 28015G25KT P6SM OVC020 PROB30 0319/0322 5SM -SHRASN
     FM040100 29012G18KT P6SM OVC025=

USA.gov is the U.S. government's official web portal to all federal, state and local government web resources and services.